Home   Weather   USA   Black Mountain   Past weeks
Flag for USA

Past Weather in Black Mountain, North Carolina, USA — Yesterday and Last 2 Weeks

Currently: 75 °F. Scattered clouds. (Weather station: Asheville Regional Airport, USA). See more current weather

Past Weather in Black Mountain — Graph

°F

Black Mountain Temperature Yesterday

Maximum temperature yesterday: 74 °F (at 12:01 pm)
Minimum temperature yesterday: 56 °F (at 6:38 am)
Average temperature yesterday: 63 °F

High & Low Weather Summary for the Past Weeks

 TemperatureHumidityPressure
High83 °F (May 3, 2:54 pm)100% (May 15, 12:10 am)30.31 "Hg (May 15, 12:10 am)
Low44 °F (May 10, 5:54 am)25% (May 10, 4:54 pm)29.51 "Hg (May 6, 5:54 pm)
Average63 °F75%29.99 "Hg
* Reported May 1 1:54 pm — May 16 1:54 pm, Black Mountain. Weather by CustomWeather, © 2022

Note: Actual official high and low records may vary slightly from our data, if they occured in-between our weather recording intervals... More about our weather records

Black Mountain Weather History for the Previous 24 Hours

Scroll right to see more
 ConditionsComfort  
Time TempWeatherWind HumidityBarometerVisibility
1:54 pm
Mon, May 16
74 °FMore clouds than sun.10 mph57%29.82 "Hg10 mi
12:54 pm76 °FScattered clouds.3 mph58%29.83 "Hg10 mi
11:54 am72 °FPartly sunny.7 mph66%29.86 "Hg10 mi
10:54 am70 °FScattered clouds.12 mph73%29.86 "Hg10 mi
10:00 am65 °FScattered clouds.3 mph85%29.92 "Hg8 mi
9:29 am60 °FLow clouds.No wind96%29.92 "Hg8 mi
9:03 am60 °FFog.No wind96%29.92 "Hg1 mi
7:54 am58 °FFog.No wind100%29.86 "Hg1 mi
7:20 am57 °FFog.No wind100%29.91 "Hg2 mi
7:05 am57 °FFog.3 mph100%29.90 "Hg1 mi
6:54 am57 °FFog.5 mph100%29.84 "Hg1 mi
6:22 am59 °FFog.3 mph100%29.89 "Hg1 mi
5:54 am60 °FFog.3 mph100%29.82 "Hg0 mi
5:04 am60 °FFog.3 mph100%29.90 "Hg0 mi
4:28 am60 °FFog.No wind100%29.91 "Hg1 mi
4:20 am61 °FFog.No wind97%29.91 "Hg2 mi
3:54 am60 °FLow clouds.3 mph96%29.84 "Hg7 mi
3:32 am60 °FFog.5 mph96%29.91 "Hg2 mi
3:21 am60 °FFog.5 mph96%29.91 "Hg1 mi
3:12 am59 °FFog.5 mph100%29.91 "Hg6 mi
2:54 am59 °FPassing clouds.3 mph96%29.85 "Hg10 mi
1:54 am60 °FPassing clouds.3 mph96%29.86 "Hg10 mi
12:54 am62 °FPassing clouds.No wind93%29.88 "Hg10 mi
12:21 am62 °FPassing clouds.No wind93%29.95 "Hg10 mi
11:54 pm
Sun, May 15
62 °FPassing clouds.5 mph93%29.88 "Hg10 mi
10:54 pm63 °FPassing clouds.No wind97%29.90 "Hg10 mi
9:54 pm65 °FLight rain. Overcast.5 mph91%29.90 "Hg10 mi
8:54 pm65 °FPassing clouds.7 mph91%29.90 "Hg10 mi
7:54 pm68 °FBroken clouds.5 mph78%29.88 "Hg10 mi
6:54 pm70 °FBroken clouds.3 mph73%29.88 "Hg10 mi
6:26 pm71 °FThundershowers. Passing clouds.No wind68%29.94 "Hg10 mi
5:54 pm71 °FSunny.No wind68%29.88 "Hg10 mi
5:34 pm71 °FThundershowers. Sunny.5 mph68%29.94 "Hg10 mi
4:54 pm72 °FOvercast.5 mph66%29.88 "Hg10 mi
3:54 pm71 °FOvercast.7 mph66%29.90 "Hg10 mi
Weather by CustomWeather, © 2022

See weather overview